sensor_id;sensor_type;location;lat;lon;timestamp;P1;durP1;ratioP1;P2;durP2;ratioP2
24435;SDS011;12616;52.470;13.436;2022-12-18T00:08:26;27.90;;;13.07;;
24435;SDS011;12616;52.470;13.436;2022-12-18T00:11:21;29.25;;;14.77;;
24435;SDS011;12616;52.470;13.436;2022-12-18T00:13:53;27.42;;;13.27;;
24435;SDS011;12616;52.470;13.436;2022-12-18T00:16:38;34.35;;;13.77;;
24435;SDS011;12616;52.470;13.436;2022-12-18T00:19:23;39.47;;;13.45;;
24435;SDS011;12616;52.470;13.436;2022-12-18T00:22:10;37.63;;;15.15;;
24435;SDS011;12616;52.470;13.436;2022-12-18T00:25:07;38.83;;;14.38;;
24435;SDS011;12616;52.470;13.436;2022-12-18T00:28:15;30.25;;;14.68;;
24435;SDS011;12616;52.470;13.436;2022-12-18T00:36:40;32.00;;;14.60;;
24435;SDS011;12616;52.470;13.436;2022-12-18T00:45:49;33.55;;;14.57;;
24435;SDS011;12616;52.470;13.436;2022-12-18T00:48:31;42.13;;;16.10;;
24435;SDS011;12616;52.470;13.436;2022-12-18T00:57:46;41.42;;;16.73;;
24435;SDS011;12616;52.470;13.436;2022-12-18T01:09:49;36.63;;;15.27;;
24435;SDS011;12616;52.470;13.436;2022-12-18T01:12:45;40.88;;;16.15;;
24435;SDS011;12616;52.470;13.436;2022-12-18T01:15:38;35.63;;;16.65;;
24435;SDS011;12616;52.470;13.436;2022-12-18T01:18:14;40.47;;;14.85;;
24435;SDS011;12616;52.470;13.436;2022-12-18T01:49:34;54.03;;;20.52;;
24435;SDS011;12616;52.470;13.436;2022-12-18T01:54:45;47.70;;;22.20;;
24435;SDS011;12616;52.470;13.436;2022-12-18T01:57:23;69.82;;;21.45;;
24435;SDS011;12616;52.470;13.436;2022-12-18T02:00:01;53.80;;;18.30;;
24435;SDS011;12616;52.470;13.436;2022-12-18T02:02:52;56.97;;;20.02;;
24435;SDS011;12616;52.470;13.436;2022-12-18T02:08:54;45.35;;;17.58;;
24435;SDS011;12616;52.470;13.436;2022-12-18T02:11:35;69.97;;;23.10;;
24435;SDS011;12616;52.470;13.436;2022-12-18T02:14:26;51.55;;;20.23;;
24435;SDS011;12616;52.470;13.436;2022-12-18T02:17:02;52.75;;;19.98;;
24435;SDS011;12616;52.470;13.436;2022-12-18T02:19:42;60.42;;;21.35;;
24435;SDS011;12616;52.470;13.436;2022-12-18T02:22:24;63.47;;;21.15;;
24435;SDS011;12616;52.470;13.436;2022-12-18T02:25:05;56.92;;;21.60;;
24435;SDS011;12616;52.470;13.436;2022-12-18T02:30:53;62.55;;;21.77;;
24435;SDS011;12616;52.470;13.436;2022-12-18T02:33:28;59.60;;;25.15;;
24435;SDS011;12616;52.470;13.436;2022-12-18T02:36:05;67.85;;;24.35;;
24435;SDS011;12616;52.470;13.436;2022-12-18T02:38:35;64.93;;;23.75;;
24435;SDS011;12616;52.470;13.436;2022-12-18T02:41:09;55.38;;;20.80;;
24435;SDS011;12616;52.470;13.436;2022-12-18T02:43:43;69.50;;;22.48;;
24435;SDS011;12616;52.470;13.436;2022-12-18T02:46:26;66.68;;;21.55;;
24435;SDS011;12616;52.470;13.436;2022-12-18T02:49:08;61.20;;;23.05;;
24435;SDS011;12616;52.470;13.436;2022-12-18T02:51:52;49.30;;;20.83;;
24435;SDS011;12616;52.470;13.436;2022-12-18T02:54:27;59.47;;;21.52;;
24435;SDS011;12616;52.470;13.436;2022-12-18T02:57:04;67.07;;;23.95;;
24435;SDS011;12616;52.470;13.436;2022-12-18T02:59:48;59.88;;;21.88;;
24435;SDS011;12616;52.470;13.436;2022-12-18T03:02:38;67.22;;;22.67;;
24435;SDS011;12616;52.470;13.436;2022-12-18T03:05:16;53.20;;;20.67;;
24435;SDS011;12616;52.470;13.436;2022-12-18T03:07:55;51.33;;;19.00;;
24435;SDS011;12616;52.470;13.436;2022-12-18T03:10:28;43.53;;;20.65;;
24435;SDS011;12616;52.470;13.436;2022-12-18T03:13:10;45.67;;;19.20;;
24435;SDS011;12616;52.470;13.436;2022-12-18T03:16:00;55.75;;;20.33;;
24435;SDS011;12616;52.470;13.436;2022-12-18T03:18:35;49.53;;;20.88;;
24435;SDS011;12616;52.470;13.436;2022-12-18T03:21:15;50.55;;;19.08;;
24435;SDS011;12616;52.470;13.436;2022-12-18T03:24:14;44.53;;;17.33;;
24435;SDS011;12616;52.470;13.436;2022-12-18T03:29:44;40.53;;;16.13;;
24435;SDS011;12616;52.470;13.436;2022-12-18T03:32:23;52.30;;;20.08;;
24435;SDS011;12616;52.470;13.436;2022-12-18T03:35:05;43.88;;;19.33;;
24435;SDS011;12616;52.470;13.436;2022-12-18T03:37:36;43.67;;;16.48;;
24435;SDS011;12616;52.470;13.436;2022-12-18T03:40:04;46.97;;;17.13;;
24435;SDS011;12616;52.470;13.436;2022-12-18T03:42:37;54.35;;;18.25;;
24435;SDS011;12616;52.470;13.436;2022-12-18T03:45:42;54.33;;;18.95;;
24435;SDS011;12616;52.470;13.436;2022-12-18T03:48:26;78.25;;;22.75;;
24435;SDS011;12616;52.470;13.436;2022-12-18T03:51:26;45.25;;;18.35;;
24435;SDS011;12616;52.470;13.436;2022-12-18T03:54:10;51.45;;;18.75;;
24435;SDS011;12616;52.470;13.436;2022-12-18T03:56:45;51.55;;;19.63;;
24435;SDS011;12616;52.470;13.436;2022-12-18T03:59:43;38.92;;;17.52;;
24435;SDS011;12616;52.470;13.436;2022-12-18T04:02:22;37.70;;;16.65;;
24435;SDS011;12616;52.470;13.436;2022-12-18T04:11:08;45.10;;;15.27;;
24435;SDS011;12616;52.470;13.436;2022-12-18T04:14:03;41.65;;;16.98;;
24435;SDS011;12616;52.470;13.436;2022-12-18T04:16:33;39.17;;;15.93;;
24435;SDS011;12616;52.470;13.436;2022-12-18T04:19:28;35.95;;;15.50;;
24435;SDS011;12616;52.470;13.436;2022-12-18T04:22:14;33.10;;;12.57;;
24435;SDS011;12616;52.470;13.436;2022-12-18T04:24:52;34.60;;;14.25;;
24435;SDS011;12616;52.470;13.436;2022-12-18T04:27:30;31.63;;;14.50;;
24435;SDS011;12616;52.470;13.436;2022-12-18T04:30:00;38.42;;;17.42;;
24435;SDS011;12616;52.470;13.436;2022-12-18T04:32:31;26.50;;;13.55;;
24435;SDS011;12616;52.470;13.436;2022-12-18T04:35:10;34.88;;;16.65;;
24435;SDS011;12616;52.470;13.436;2022-12-18T04:37:45;40.80;;;16.88;;
24435;SDS011;12616;52.470;13.436;2022-12-18T04:40:18;38.45;;;16.08;;
24435;SDS011;12616;52.470;13.436;2022-12-18T04:42:50;31.73;;;13.63;;
24435;SDS011;12616;52.470;13.436;2022-12-18T04:45:25;43.40;;;15.77;;
24435;SDS011;12616;52.470;13.436;2022-12-18T04:47:58;37.40;;;16.23;;
24435;SDS011;12616;52.470;13.436;2022-12-18T04:50:26;38.35;;;14.60;;
24435;SDS011;12616;52.470;13.436;2022-12-18T04:53:03;31.45;;;14.32;;
24435;SDS011;12616;52.470;13.436;2022-12-18T04:55:37;33.92;;;16.63;;
24435;SDS011;12616;52.470;13.436;2022-12-18T04:58:12;31.95;;;14.60;;
24435;SDS011;12616;52.470;13.436;2022-12-18T05:00:55;38.00;;;13.40;;
24435;SDS011;12616;52.470;13.436;2022-12-18T05:03:26;35.25;;;14.30;;
24435;SDS011;12616;52.470;13.436;2022-12-18T05:05:57;35.38;;;14.93;;
24435;SDS011;12616;52.470;13.436;2022-12-18T05:08:33;33.75;;;14.52;;
24435;SDS011;12616;52.470;13.436;2022-12-18T05:28:00;52.28;;;19.92;;
24435;SDS011;12616;52.470;13.436;2022-12-18T05:33:37;58.67;;;18.35;;
24435;SDS011;12616;52.470;13.436;2022-12-18T05:36:25;36.33;;;15.85;;
24435;SDS011;12616;52.470;13.436;2022-12-18T05:39:07;48.10;;;18.38;;
24435;SDS011;12616;52.470;13.436;2022-12-18T05:41:51;41.97;;;17.63;;
24435;SDS011;12616;52.470;13.436;2022-12-18T05:44:25;45.40;;;20.73;;
24435;SDS011;12616;52.470;13.436;2022-12-18T05:47:06;41.10;;;15.40;;
24435;SDS011;12616;52.470;13.436;2022-12-18T05:49:40;49.40;;;17.30;;
24435;SDS011;12616;52.470;13.436;2022-12-18T05:54:59;49.47;;;19.52;;
24435;SDS011;12616;52.470;13.436;2022-12-18T05:57:27;43.65;;;16.25;;
24435;SDS011;12616;52.470;13.436;2022-12-18T05:59:59;37.85;;;15.57;;
24435;SDS011;12616;52.470;13.436;2022-12-18T06:05:26;45.20;;;17.67;;
24435;SDS011;12616;52.470;13.436;2022-12-18T06:07:54;44.88;;;18.23;;
24435;SDS011;12616;52.470;13.436;2022-12-18T06:10:34;37.03;;;15.52;;
24435;SDS011;12616;52.470;13.436;2022-12-18T06:16:26;42.90;;;16.48;;
24435;SDS011;12616;52.470;13.436;2022-12-18T06:19:04;33.92;;;16.35;;
24435;SDS011;12616;52.470;13.436;2022-12-18T06:21:45;38.05;;;16.20;;
24435;SDS011;12616;52.470;13.436;2022-12-18T06:24:29;48.75;;;20.75;;
24435;SDS011;12616;52.470;13.436;2022-12-18T06:27:12;39.65;;;19.27;;
24435;SDS011;12616;52.470;13.436;2022-12-18T06:29:56;42.25;;;17.05;;
24435;SDS011;12616;52.470;13.436;2022-12-18T06:32:35;50.80;;;17.45;;
24435;SDS011;12616;52.470;13.436;2022-12-18T06:35:09;44.00;;;16.95;;
24435;SDS011;12616;52.470;13.436;2022-12-18T06:37:47;47.53;;;17.90;;
24435;SDS011;12616;52.470;13.436;2022-12-18T06:40:28;45.15;;;17.42;;
24435;SDS011;12616;52.470;13.436;2022-12-18T06:43:00;42.40;;;15.93;;
24435;SDS011;12616;52.470;13.436;2022-12-18T06:45:38;44.97;;;19.92;;
24435;SDS011;12616;52.470;13.436;2022-12-18T06:48:16;49.60;;;19.77;;
24435;SDS011;12616;52.470;13.436;2022-12-18T06:50:58;51.47;;;17.73;;
24435;SDS011;12616;52.470;13.436;2022-12-18T06:53:40;53.75;;;18.48;;
24435;SDS011;12616;52.470;13.436;2022-12-18T06:56:28;32.75;;;16.40;;
24435;SDS011;12616;52.470;13.436;2022-12-18T06:58:59;48.42;;;19.23;;
24435;SDS011;12616;52.470;13.436;2022-12-18T07:01:34;33.22;;;16.85;;
24435;SDS011;12616;52.470;13.436;2022-12-18T07:04:06;44.60;;;16.83;;
24435;SDS011;12616;52.470;13.436;2022-12-18T07:06:40;57.40;;;20.25;;
24435;SDS011;12616;52.470;13.436;2022-12-18T07:09:34;49.50;;;18.80;;
24435;SDS011;12616;52.470;13.436;2022-12-18T07:12:22;35.70;;;16.30;;
24435;SDS011;12616;52.470;13.436;2022-12-18T07:15:08;56.08;;;20.52;;
24435;SDS011;12616;52.470;13.436;2022-12-18T07:17:44;50.67;;;20.00;;
24435;SDS011;12616;52.470;13.436;2022-12-18T07:20:30;44.65;;;16.95;;
24435;SDS011;12616;52.470;13.436;2022-12-18T07:23:13;41.22;;;19.65;;
24435;SDS011;12616;52.470;13.436;2022-12-18T07:25:46;38.72;;;16.00;;
24435;SDS011;12616;52.470;13.436;2022-12-18T07:28:54;56.80;;;19.60;;
24435;SDS011;12616;52.470;13.436;2022-12-18T07:34:16;69.22;;;25.75;;
24435;SDS011;12616;52.470;13.436;2022-12-18T07:36:52;53.15;;;19.40;;
24435;SDS011;12616;52.470;13.436;2022-12-18T07:39:25;57.65;;;20.23;;
24435;SDS011;12616;52.470;13.436;2022-12-18T07:42:10;51.00;;;21.77;;
24435;SDS011;12616;52.470;13.436;2022-12-18T07:45:15;46.85;;;18.13;;
24435;SDS011;12616;52.470;13.436;2022-12-18T07:48:01;43.72;;;17.48;;
24435;SDS011;12616;52.470;13.436;2022-12-18T07:50:43;48.40;;;18.50;;
24435;SDS011;12616;52.470;13.436;2022-12-18T07:53:27;48.85;;;17.25;;
24435;SDS011;12616;52.470;13.436;2022-12-18T07:56:09;38.95;;;16.58;;
24435;SDS011;12616;52.470;13.436;2022-12-18T07:59:07;41.45;;;17.10;;
24435;SDS011;12616;52.470;13.436;2022-12-18T08:04:32;60.20;;;19.40;;
24435;SDS011;12616;52.470;13.436;2022-12-18T08:07:03;45.85;;;17.08;;
24435;SDS011;12616;52.470;13.436;2022-12-18T08:09:45;38.97;;;17.30;;
24435;SDS011;12616;52.470;13.436;2022-12-18T08:12:33;40.92;;;18.58;;
24435;SDS011;12616;52.470;13.436;2022-12-18T08:15:07;35.78;;;15.50;;
24435;SDS011;12616;52.470;13.436;2022-12-18T08:17:49;46.00;;;17.35;;
24435;SDS011;12616;52.470;13.436;2022-12-18T08:20:36;57.83;;;22.48;;
24435;SDS011;12616;52.470;13.436;2022-12-18T08:23:23;39.90;;;18.35;;
24435;SDS011;12616;52.470;13.436;2022-12-18T08:26:53;57.28;;;24.23;;
24435;SDS011;12616;52.470;13.436;2022-12-18T08:43:46;53.60;;;16.70;;
24435;SDS011;12616;52.470;13.436;2022-12-18T08:50:15;37.72;;;18.70;;
24435;SDS011;12616;52.470;13.436;2022-12-18T09:32:25;34.90;;;17.58;;
24435;SDS011;12616;52.470;13.436;2022-12-18T09:34:52;41.20;;;15.63;;
24435;SDS011;12616;52.470;13.436;2022-12-18T09:37:22;41.42;;;16.75;;
24435;SDS011;12616;52.470;13.436;2022-12-18T09:39:50;35.38;;;16.20;;
24435;SDS011;12616;52.470;13.436;2022-12-18T09:42:19;41.15;;;17.35;;
24435;SDS011;12616;52.470;13.436;2022-12-18T09:44:49;51.53;;;19.45;;
24435;SDS011;12616;52.470;13.436;2022-12-18T09:47:19;46.85;;;17.50;;
24435;SDS011;12616;52.470;13.436;2022-12-18T09:49:52;44.85;;;17.20;;
24435;SDS011;12616;52.470;13.436;2022-12-18T09:52:29;48.25;;;19.05;;
24435;SDS011;12616;52.470;13.436;2022-12-18T09:54:58;37.00;;;17.10;;
24435;SDS011;12616;52.470;13.436;2022-12-18T09:57:28;36.72;;;15.25;;
24435;SDS011;12616;52.470;13.436;2022-12-18T10:00:03;45.22;;;15.95;;
24435;SDS011;12616;52.470;13.436;2022-12-18T10:02:37;41.38;;;15.43;;
24435;SDS011;12616;52.470;13.436;2022-12-18T10:05:10;41.33;;;16.98;;
24435;SDS011;12616;52.470;13.436;2022-12-18T10:07:46;41.30;;;16.00;;
24435;SDS011;12616;52.470;13.436;2022-12-18T10:10:24;33.75;;;14.65;;
24435;SDS011;12616;52.470;13.436;2022-12-18T10:13:00;49.35;;;20.10;;
24435;SDS011;12616;52.470;13.436;2022-12-18T10:15:37;47.75;;;19.48;;
24435;SDS011;12616;52.470;13.436;2022-12-18T10:18:22;36.58;;;16.67;;
24435;SDS011;12616;52.470;13.436;2022-12-18T10:21:07;46.92;;;16.95;;
24435;SDS011;12616;52.470;13.436;2022-12-18T10:23:43;45.63;;;17.73;;
24435;SDS011;12616;52.470;13.436;2022-12-18T10:26:18;45.72;;;18.02;;
24435;SDS011;12616;52.470;13.436;2022-12-18T10:28:45;40.30;;;17.15;;
24435;SDS011;12616;52.470;13.436;2022-12-18T10:31:14;47.45;;;18.90;;
24435;SDS011;12616;52.470;13.436;2022-12-18T10:33:53;49.60;;;20.58;;
24435;SDS011;12616;52.470;13.436;2022-12-18T10:36:23;61.70;;;26.83;;
24435;SDS011;12616;52.470;13.436;2022-12-18T10:39:13;56.83;;;24.42;;
24435;SDS011;12616;52.470;13.436;2022-12-18T10:41:44;56.08;;;22.95;;
24435;SDS011;12616;52.470;13.436;2022-12-18T10:44:14;61.65;;;21.60;;
24435;SDS011;12616;52.470;13.436;2022-12-18T10:47:11;46.47;;;20.27;;
24435;SDS011;12616;52.470;13.436;2022-12-18T10:49:54;53.05;;;19.23;;
24435;SDS011;12616;52.470;13.436;2022-12-18T10:52:24;54.72;;;21.02;;
24435;SDS011;12616;52.470;13.436;2022-12-18T10:54:54;52.85;;;16.23;;
24435;SDS011;12616;52.470;13.436;2022-12-18T10:57:30;45.55;;;19.13;;
24435;SDS011;12616;52.470;13.436;2022-12-18T11:00:18;48.05;;;21.02;;
24435;SDS011;12616;52.470;13.436;2022-12-18T11:03:07;48.80;;;19.70;;
24435;SDS011;12616;52.470;13.436;2022-12-18T11:06:01;40.95;;;15.75;;
24435;SDS011;12616;52.470;13.436;2022-12-18T11:08:32;49.92;;;19.50;;
24435;SDS011;12616;52.470;13.436;2022-12-18T11:10:59;41.90;;;19.58;;
24435;SDS011;12616;52.470;13.436;2022-12-18T11:13:30;36.85;;;15.65;;
24435;SDS011;12616;52.470;13.436;2022-12-18T11:16:00;42.20;;;16.70;;
24435;SDS011;12616;52.470;13.436;2022-12-18T11:18:30;45.85;;;20.00;;
24435;SDS011;12616;52.470;13.436;2022-12-18T11:21:00;46.80;;;17.65;;
24435;SDS011;12616;52.470;13.436;2022-12-18T11:23:44;32.97;;;17.00;;
24435;SDS011;12616;52.470;13.436;2022-12-18T11:26:19;40.50;;;17.90;;
24435;SDS011;12616;52.470;13.436;2022-12-18T11:28:49;39.58;;;18.27;;
24435;SDS011;12616;52.470;13.436;2022-12-18T11:31:22;36.33;;;16.77;;
24435;SDS011;12616;52.470;13.436;2022-12-18T11:33:59;44.72;;;19.20;;
24435;SDS011;12616;52.470;13.436;2022-12-18T11:36:32;35.33;;;15.38;;
24435;SDS011;12616;52.470;13.436;2022-12-18T11:39:04;37.15;;;15.60;;
24435;SDS011;12616;52.470;13.436;2022-12-18T11:41:45;38.78;;;17.13;;
24435;SDS011;12616;52.470;13.436;2022-12-18T11:44:34;42.67;;;17.15;;
24435;SDS011;12616;52.470;13.436;2022-12-18T11:47:09;39.35;;;16.90;;
24435;SDS011;12616;52.470;13.436;2022-12-18T11:49:44;34.00;;;17.30;;
24435;SDS011;12616;52.470;13.436;2022-12-18T11:52:16;33.63;;;16.75;;
24435;SDS011;12616;52.470;13.436;2022-12-18T11:54:55;40.95;;;15.50;;
24435;SDS011;12616;52.470;13.436;2022-12-18T11:57:40;46.55;;;18.05;;
24435;SDS011;12616;52.470;13.436;2022-12-18T12:00:17;44.83;;;17.27;;
24435;SDS011;12616;52.470;13.436;2022-12-18T12:06:00;42.60;;;18.15;;
24435;SDS011;12616;52.470;13.436;2022-12-18T12:08:35;38.15;;;17.70;;
24435;SDS011;12616;52.470;13.436;2022-12-18T12:11:18;45.83;;;19.83;;
24435;SDS011;12616;52.470;13.436;2022-12-18T12:14:14;41.25;;;17.50;;
24435;SDS011;12616;52.470;13.436;2022-12-18T12:17:00;41.50;;;15.95;;
24435;SDS011;12616;52.470;13.436;2022-12-18T12:19:37;40.15;;;19.08;;
24435;SDS011;12616;52.470;13.436;2022-12-18T12:22:13;37.17;;;16.77;;
24435;SDS011;12616;52.470;13.436;2022-12-18T12:24:53;44.28;;;19.63;;
24435;SDS011;12616;52.470;13.436;2022-12-18T12:27:33;43.50;;;22.23;;
24435;SDS011;12616;52.470;13.436;2022-12-18T12:30:10;43.95;;;20.30;;
24435;SDS011;12616;52.470;13.436;2022-12-18T12:35:44;42.97;;;19.05;;
24435;SDS011;12616;52.470;13.436;2022-12-18T12:38:17;39.55;;;19.33;;
24435;SDS011;12616;52.470;13.436;2022-12-18T12:40:51;41.15;;;18.00;;
24435;SDS011;12616;52.470;13.436;2022-12-18T12:43:33;39.85;;;18.95;;
24435;SDS011;12616;52.470;13.436;2022-12-18T12:46:06;38.90;;;17.25;;
24435;SDS011;12616;52.470;13.436;2022-12-18T12:48:36;40.05;;;16.50;;
24435;SDS011;12616;52.470;13.436;2022-12-18T12:51:13;39.20;;;16.58;;
24435;SDS011;12616;52.470;13.436;2022-12-18T12:54:06;43.38;;;17.10;;
24435;SDS011;12616;52.470;13.436;2022-12-18T12:56:46;42.13;;;19.27;;
24435;SDS011;12616;52.470;13.436;2022-12-18T12:59:29;30.55;;;15.93;;
24435;SDS011;12616;52.470;13.436;2022-12-18T13:02:18;43.30;;;18.20;;
24435;SDS011;12616;52.470;13.436;2022-12-18T13:04:52;39.72;;;17.95;;
24435;SDS011;12616;52.470;13.436;2022-12-18T13:07:25;36.65;;;17.85;;
24435;SDS011;12616;52.470;13.436;2022-12-18T13:10:22;37.03;;;19.10;;
24435;SDS011;12616;52.470;13.436;2022-12-18T13:12:53;37.20;;;18.58;;
24435;SDS011;12616;52.470;13.436;2022-12-18T13:15:23;33.13;;;15.85;;
24435;SDS011;12616;52.470;13.436;2022-12-18T13:18:18;30.10;;;14.85;;
24435;SDS011;12616;52.470;13.436;2022-12-18T13:20:49;28.60;;;14.55;;
24435;SDS011;12616;52.470;13.436;2022-12-18T13:23:31;35.30;;;18.48;;
24435;SDS011;12616;52.470;13.436;2022-12-18T13:29:03;34.05;;;17.42;;
24435;SDS011;12616;52.470;13.436;2022-12-18T13:34:38;36.45;;;19.02;;
24435;SDS011;12616;52.470;13.436;2022-12-18T13:43:26;35.30;;;17.80;;
24435;SDS011;12616;52.470;13.436;2022-12-18T13:46:21;38.25;;;19.38;;
24435;SDS011;12616;52.470;13.436;2022-12-18T13:48:57;42.55;;;17.67;;
24435;SDS011;12616;52.470;13.436;2022-12-18T13:51:32;42.70;;;18.60;;
24435;SDS011;12616;52.470;13.436;2022-12-18T13:54:01;43.35;;;22.27;;
24435;SDS011;12616;52.470;13.436;2022-12-18T13:56:33;44.20;;;19.63;;
24435;SDS011;12616;52.470;13.436;2022-12-18T13:59:14;46.72;;;19.42;;
24435;SDS011;12616;52.470;13.436;2022-12-18T14:01:44;43.00;;;21.73;;
24435;SDS011;12616;52.470;13.436;2022-12-18T14:04:18;42.17;;;19.33;;
24435;SDS011;12616;52.470;13.436;2022-12-18T14:06:52;43.10;;;21.25;;
24435;SDS011;12616;52.470;13.436;2022-12-18T14:09:24;51.47;;;21.20;;
24435;SDS011;12616;52.470;13.436;2022-12-18T14:11:53;43.85;;;20.50;;
24435;SDS011;12616;52.470;13.436;2022-12-18T14:14:45;47.90;;;20.95;;
24435;SDS011;12616;52.470;13.436;2022-12-18T14:17:17;46.30;;;22.30;;
24435;SDS011;12616;52.470;13.436;2022-12-18T14:19:49;55.28;;;23.52;;
24435;SDS011;12616;52.470;13.436;2022-12-18T14:22:21;40.72;;;22.83;;
24435;SDS011;12616;52.470;13.436;2022-12-18T14:25:05;40.63;;;21.55;;
24435;SDS011;12616;52.470;13.436;2022-12-18T14:27:41;39.15;;;21.42;;
24435;SDS011;12616;52.470;13.436;2022-12-18T14:30:24;44.08;;;24.83;;
24435;SDS011;12616;52.470;13.436;2022-12-18T14:33:05;41.00;;;19.13;;
24435;SDS011;12616;52.470;13.436;2022-12-18T14:35:52;43.13;;;21.48;;
24435;SDS011;12616;52.470;13.436;2022-12-18T14:38:24;37.65;;;20.27;;
24435;SDS011;12616;52.470;13.436;2022-12-18T14:41:05;46.05;;;21.15;;
24435;SDS011;12616;52.470;13.436;2022-12-18T14:43:40;30.83;;;18.88;;
24435;SDS011;12616;52.470;13.436;2022-12-18T14:48:57;34.75;;;17.50;;
24435;SDS011;12616;52.470;13.436;2022-12-18T14:51:26;27.20;;;14.40;;
24435;SDS011;12616;52.470;13.436;2022-12-18T14:53:57;31.67;;;16.38;;
24435;SDS011;12616;52.470;13.436;2022-12-18T14:56:26;29.98;;;15.50;;
24435;SDS011;12616;52.470;13.436;2022-12-18T14:58:58;33.80;;;17.38;;
24435;SDS011;12616;52.470;13.436;2022-12-18T15:01:34;35.85;;;20.75;;
24435;SDS011;12616;52.470;13.436;2022-12-18T15:04:03;35.17;;;17.67;;
24435;SDS011;12616;52.470;13.436;2022-12-18T15:06:46;32.22;;;17.58;;
24435;SDS011;12616;52.470;13.436;2022-12-18T15:09:21;28.50;;;15.40;;
24435;SDS011;12616;52.470;13.436;2022-12-18T15:11:55;35.22;;;18.08;;
24435;SDS011;12616;52.470;13.436;2022-12-18T15:14:37;31.02;;;18.92;;
24435;SDS011;12616;52.470;13.436;2022-12-18T15:17:16;32.95;;;16.50;;
24435;SDS011;12616;52.470;13.436;2022-12-18T15:19:45;34.05;;;15.73;;
24435;SDS011;12616;52.470;13.436;2022-12-18T15:22:24;29.90;;;16.63;;
24435;SDS011;12616;52.470;13.436;2022-12-18T15:24:57;24.58;;;14.35;;
24435;SDS011;12616;52.470;13.436;2022-12-18T15:27:29;26.65;;;15.82;;
24435;SDS011;12616;52.470;13.436;2022-12-18T15:53:43;37.97;;;19.77;;
24435;SDS011;12616;52.470;13.436;2022-12-18T15:56:20;25.33;;;15.00;;
24435;SDS011;12616;52.470;13.436;2022-12-18T15:59:20;30.40;;;16.33;;
24435;SDS011;12616;52.470;13.436;2022-12-18T17:27:28;36.08;;;18.25;;
24435;SDS011;12616;52.470;13.436;2022-12-18T17:30:12;38.80;;;19.42;;
24435;SDS011;12616;52.470;13.436;2022-12-18T18:20:03;46.08;;;20.45;;
24435;SDS011;12616;52.470;13.436;2022-12-18T18:22:34;44.58;;;22.42;;
24435;SDS011;12616;52.470;13.436;2022-12-18T18:25:10;37.63;;;17.05;;
24435;SDS011;12616;52.470;13.436;2022-12-18T18:27:52;38.78;;;20.25;;
24435;SDS011;12616;52.470;13.436;2022-12-18T18:30:34;49.35;;;21.15;;
24435;SDS011;12616;52.470;13.436;2022-12-18T18:33:11;49.45;;;19.95;;
24435;SDS011;12616;52.470;13.436;2022-12-18T19:51:25;44.17;;;24.80;;
24435;SDS011;12616;52.470;13.436;2022-12-18T19:54:09;44.45;;;19.70;;
24435;SDS011;12616;52.470;13.436;2022-12-18T19:56:38;56.95;;;22.85;;
24435;SDS011;12616;52.470;13.436;2022-12-18T19:59:21;52.95;;;20.90;;
24435;SDS011;12616;52.470;13.436;2022-12-18T20:01:50;44.60;;;23.10;;
24435;SDS011;12616;52.470;13.436;2022-12-18T20:04:23;40.08;;;22.48;;
24435;SDS011;12616;52.470;13.436;2022-12-18T20:06:53;45.42;;;22.70;;
24435;SDS011;12616;52.470;13.436;2022-12-18T20:09:23;39.38;;;19.52;;
24435;SDS011;12616;52.470;13.436;2022-12-18T20:12:10;43.05;;;22.17;;
24435;SDS011;12616;52.470;13.436;2022-12-18T20:15:00;42.90;;;19.80;;
24435;SDS011;12616;52.470;13.436;2022-12-18T20:17:45;42.97;;;20.58;;
24435;SDS011;12616;52.470;13.436;2022-12-18T20:20:31;41.13;;;19.95;;
24435;SDS011;12616;52.470;13.436;2022-12-18T20:26:31;41.38;;;22.63;;
24435;SDS011;12616;52.470;13.436;2022-12-18T20:29:15;36.38;;;20.50;;
24435;SDS011;12616;52.470;13.436;2022-12-18T20:31:53;44.60;;;20.30;;
24435;SDS011;12616;52.470;13.436;2022-12-18T20:34:20;39.22;;;19.80;;
24435;SDS011;12616;52.470;13.436;2022-12-18T20:36:52;49.97;;;21.58;;
24435;SDS011;12616;52.470;13.436;2022-12-18T20:39:27;46.85;;;24.83;;
24435;SDS011;12616;52.470;13.436;2022-12-18T20:44:46;43.53;;;22.52;;
24435;SDS011;12616;52.470;13.436;2022-12-18T20:47:14;44.30;;;19.52;;
24435;SDS011;12616;52.470;13.436;2022-12-18T20:49:58;39.60;;;19.10;;
24435;SDS011;12616;52.470;13.436;2022-12-18T20:52:31;38.80;;;18.70;;
24435;SDS011;12616;52.470;13.436;2022-12-18T20:55:10;40.58;;;20.23;;
24435;SDS011;12616;52.470;13.436;2022-12-18T20:57:57;46.83;;;20.90;;
24435;SDS011;12616;52.470;13.436;2022-12-18T21:00:26;36.25;;;18.77;;
24435;SDS011;12616;52.470;13.436;2022-12-18T21:02:56;43.35;;;21.58;;
24435;SDS011;12616;52.470;13.436;2022-12-18T21:05:29;42.17;;;21.63;;
24435;SDS011;12616;52.470;13.436;2022-12-18T21:08:04;45.92;;;21.00;;
24435;SDS011;12616;52.470;13.436;2022-12-18T21:10:37;37.35;;;19.75;;
24435;SDS011;12616;52.470;13.436;2022-12-18T21:13:19;42.65;;;18.00;;
24435;SDS011;12616;52.470;13.436;2022-12-18T21:15:53;41.10;;;19.65;;
24435;SDS011;12616;52.470;13.436;2022-12-18T21:18:32;52.47;;;22.83;;
24435;SDS011;12616;52.470;13.436;2022-12-18T21:21:06;42.40;;;19.27;;
24435;SDS011;12616;52.470;13.436;2022-12-18T21:23:34;37.47;;;20.02;;
24435;SDS011;12616;52.470;13.436;2022-12-18T21:26:16;37.45;;;17.02;;
24435;SDS011;12616;52.470;13.436;2022-12-18T21:28:51;44.78;;;19.02;;
24435;SDS011;12616;52.470;13.436;2022-12-18T21:31:22;40.92;;;19.75;;
24435;SDS011;12616;52.470;13.436;2022-12-18T21:33:54;35.25;;;19.05;;
24435;SDS011;12616;52.470;13.436;2022-12-18T21:36:32;37.83;;;19.52;;
24435;SDS011;12616;52.470;13.436;2022-12-18T21:39:08;35.28;;;19.73;;
24435;SDS011;12616;52.470;13.436;2022-12-18T21:41:51;39.10;;;19.85;;
24435;SDS011;12616;52.470;13.436;2022-12-18T21:47:31;36.10;;;18.10;;
24435;SDS011;12616;52.470;13.436;2022-12-18T21:50:14;37.95;;;19.65;;
24435;SDS011;12616;52.470;13.436;2022-12-18T21:52:52;40.97;;;18.40;;
24435;SDS011;12616;52.470;13.436;2022-12-18T21:55:31;37.65;;;19.15;;
24435;SDS011;12616;52.470;13.436;2022-12-18T21:58:08;38.45;;;19.77;;
24435;SDS011;12616;52.470;13.436;2022-12-18T22:00:36;41.83;;;20.20;;
24435;SDS011;12616;52.470;13.436;2022-12-18T22:03:11;41.03;;;19.08;;
24435;SDS011;12616;52.470;13.436;2022-12-18T22:05:41;48.50;;;20.52;;
24435;SDS011;12616;52.470;13.436;2022-12-18T22:08:12;42.05;;;19.58;;
24435;SDS011;12616;52.470;13.436;2022-12-18T22:10:39;29.48;;;17.98;;
24435;SDS011;12616;52.470;13.436;2022-12-18T22:13:14;38.63;;;18.60;;
24435;SDS011;12616;52.470;13.436;2022-12-18T22:15:43;39.03;;;19.27;;
24435;SDS011;12616;52.470;13.436;2022-12-18T22:18:14;44.72;;;19.23;;
24435;SDS011;12616;52.470;13.436;2022-12-18T22:20:46;39.15;;;17.63;;
24435;SDS011;12616;52.470;13.436;2022-12-18T22:23:17;37.10;;;18.38;;
24435;SDS011;12616;52.470;13.436;2022-12-18T22:25:53;37.47;;;17.88;;
24435;SDS011;12616;52.470;13.436;2022-12-18T22:28:29;37.30;;;19.35;;